Página principal
METAR-TAF:

METAR-TAF

Aeroportos :

Varsóvia, Polónia

Aeroporto Frédéric Chopin de Varsóvia

latitude: 52-10N, longitude: 020-58E, altura: 106 m

Observação actual do tempo

O boletim foi feito há 31 minutos, às 11:30 UTC
Vento 13 kt de nor-nordeste
Temperatura -4°C
Humidade 54%
Pressão 1025 hPa
Visibilidade 10 km ou mais
Poucas nuvensa uma altura de 2900 ft

METAR: EPWA 241130Z 03013KT 9999 FEW029 M04/M12 Q1025 R11/2/0295 NOSIG

Hora: 13:01 (12:01 UTC)

Previsão

O boletim foi feito há 31 minutos, às 11:30 UTC
Previsão válida de 24 às 12 UTC a 25 às 12 UTC
Vento 12 kt de nordeste
Visibilidade 10 km ou mais
Nuvens dispersasa uma altura de 2500 ft
Probabilidade 40% :
Temporariamente
de 24 às 12 UTC a 24 às 15 UTC
Vento 16 kt de nordeste com rajadas de 26 kt

TAF: EPWA 241130Z 2412/2512 04012KT 9999 SCT025 PROB40 TEMPO 2412/2415 05016G26KT

Observações e previsões do tempo de mais de 4000 aeroportos (mensagens METAR e TAF).

As estações disponíveis são os pontos amarelos e vermelhos sobre o mapa.

Mova o rato sobre o mapa para ver o nome da estação.

Depois clique no ponto para visualizar as observações e previsões meteorológicas.

Para alterar o mapa : clique nos botões verdes com uma cruz preta para aumentar o zoom; no botão verde com uma pitada de zoom; ou nas setas verdes para mapas adjacentes.


METAR-TAF: